sensor_id;sensor_type;location;lat;lon;timestamp;temperature;humidity
35240;DHT22;21376;50.954;4.716;2023-04-25T00:02:32;8.80;99.90
35240;DHT22;21376;50.954;4.716;2023-04-25T00:05:01;8.80;99.90
35240;DHT22;21376;50.954;4.716;2023-04-25T00:07:30;8.90;99.90
35240;DHT22;21376;50.954;4.716;2023-04-25T00:09:56;8.90;99.90
35240;DHT22;21376;50.954;4.716;2023-04-25T00:12:22;8.90;99.90
35240;DHT22;21376;50.954;4.716;2023-04-25T00:14:50;8.90;99.90
35240;DHT22;21376;50.954;4.716;2023-04-25T00:17:19;8.90;99.90
35240;DHT22;21376;50.954;4.716;2023-04-25T00:19:48;8.90;99.90
35240;DHT22;21376;50.954;4.716;2023-04-25T00:22:44;9.00;99.90
35240;DHT22;21376;50.954;4.716;2023-04-25T00:25:12;9.00;99.90
35240;DHT22;21376;50.954;4.716;2023-04-25T00:27:42;9.10;99.90
35240;DHT22;21376;50.954;4.716;2023-04-25T00:30:11;8.80;99.90
35240;DHT22;21376;50.954;4.716;2023-04-25T00:32:53;9.00;99.90
35240;DHT22;21376;50.954;4.716;2023-04-25T00:35:20;9.00;99.90
35240;DHT22;21376;50.954;4.716;2023-04-25T00:37:47;9.10;99.90
35240;DHT22;21376;50.954;4.716;2023-04-25T00:40:14;8.90;99.90
35240;DHT22;21376;50.954;4.716;2023-04-25T00:42:40;9.00;99.90
35240;DHT22;21376;50.954;4.716;2023-04-25T00:45:08;9.10;99.90
35240;DHT22;21376;50.954;4.716;2023-04-25T00:47:36;9.00;99.90
35240;DHT22;21376;50.954;4.716;2023-04-25T00:50:02;9.00;99.90
35240;DHT22;21376;50.954;4.716;2023-04-25T00:52:28;9.10;99.90
35240;DHT22;21376;50.954;4.716;2023-04-25T00:54:54;9.00;99.90
35240;DHT22;21376;50.954;4.716;2023-04-25T00:57:21;8.90;99.90
35240;DHT22;21376;50.954;4.716;2023-04-25T00:59:54;8.90;99.90
35240;DHT22;21376;50.954;4.716;2023-04-25T01:02:23;8.90;99.90
35240;DHT22;21376;50.954;4.716;2023-04-25T01:04:55;8.80;99.90
35240;DHT22;21376;50.954;4.716;2023-04-25T01:07:24;8.90;99.90
35240;DHT22;21376;50.954;4.716;2023-04-25T01:09:54;8.90;99.90
35240;DHT22;21376;50.954;4.716;2023-04-25T01:12:22;8.90;99.90
35240;DHT22;21376;50.954;4.716;2023-04-25T01:14:48;8.90;99.90
35240;DHT22;21376;50.954;4.716;2023-04-25T01:17:15;9.00;99.90
35240;DHT22;21376;50.954;4.716;2023-04-25T01:19:44;8.90;99.90
35240;DHT22;21376;50.954;4.716;2023-04-25T01:22:13;8.90;99.90
35240;DHT22;21376;50.954;4.716;2023-04-25T01:24:41;9.00;99.90
35240;DHT22;21376;50.954;4.716;2023-04-25T01:27:10;8.90;99.90
35240;DHT22;21376;50.954;4.716;2023-04-25T01:29:40;8.70;99.90
35240;DHT22;21376;50.954;4.716;2023-04-25T01:32:06;8.80;99.90
35240;DHT22;21376;50.954;4.716;2023-04-25T01:34:35;8.80;99.90
35240;DHT22;21376;50.954;4.716;2023-04-25T01:37:03;8.80;99.90
35240;DHT22;21376;50.954;4.716;2023-04-25T01:39:29;8.70;99.90
35240;DHT22;21376;50.954;4.716;2023-04-25T01:41:59;8.70;99.90
35240;DHT22;21376;50.954;4.716;2023-04-25T01:44:26;8.70;99.90
35240;DHT22;21376;50.954;4.716;2023-04-25T01:46:55;8.70;99.90
35240;DHT22;21376;50.954;4.716;2023-04-25T01:49:24;8.60;99.90
35240;DHT22;21376;50.954;4.716;2023-04-25T01:51:51;8.60;99.90
35240;DHT22;21376;50.954;4.716;2023-04-25T01:54:19;8.60;99.90
35240;DHT22;21376;50.954;4.716;2023-04-25T01:56:51;8.60;99.90
35240;DHT22;21376;50.954;4.716;2023-04-25T01:59:20;8.40;99.90
35240;DHT22;21376;50.954;4.716;2023-04-25T02:01:48;8.50;99.90
35240;DHT22;21376;50.954;4.716;2023-04-25T02:04:14;8.60;99.90
35240;DHT22;21376;50.954;4.716;2023-04-25T02:06:41;8.60;99.90
35240;DHT22;21376;50.954;4.716;2023-04-25T02:09:07;8.50;99.90
35240;DHT22;21376;50.954;4.716;2023-04-25T02:11:37;8.50;99.90
35240;DHT22;21376;50.954;4.716;2023-04-25T02:14:05;8.50;99.90
35240;DHT22;21376;50.954;4.716;2023-04-25T02:16:34;8.50;99.90
35240;DHT22;21376;50.954;4.716;2023-04-25T02:19:07;8.40;99.90
35240;DHT22;21376;50.954;4.716;2023-04-25T02:21:34;8.40;99.90
35240;DHT22;21376;50.954;4.716;2023-04-25T02:24:03;8.40;99.90
35240;DHT22;21376;50.954;4.716;2023-04-25T02:26:32;8.30;99.90
35240;DHT22;21376;50.954;4.716;2023-04-25T02:29:01;8.30;99.90
35240;DHT22;21376;50.954;4.716;2023-04-25T02:31:30;8.30;99.90
35240;DHT22;21376;50.954;4.716;2023-04-25T02:33:56;8.30;99.90
35240;DHT22;21376;50.954;4.716;2023-04-25T02:36:28;8.30;99.90
35240;DHT22;21376;50.954;4.716;2023-04-25T02:38:58;8.30;99.90
35240;DHT22;21376;50.954;4.716;2023-04-25T02:41:28;8.40;99.90
35240;DHT22;21376;50.954;4.716;2023-04-25T02:44:14;8.30;99.90
35240;DHT22;21376;50.954;4.716;2023-04-25T02:46:40;8.30;99.90
35240;DHT22;21376;50.954;4.716;2023-04-25T02:49:08;8.30;99.90
35240;DHT22;21376;50.954;4.716;2023-04-25T02:51:35;8.30;99.90
35240;DHT22;21376;50.954;4.716;2023-04-25T02:54:01;8.30;99.90
35240;DHT22;21376;50.954;4.716;2023-04-25T02:56:26;8.30;99.90
35240;DHT22;21376;50.954;4.716;2023-04-25T02:58:53;8.30;99.90
35240;DHT22;21376;50.954;4.716;2023-04-25T03:01:23;8.40;99.90
35240;DHT22;21376;50.954;4.716;2023-04-25T03:03:55;8.40;99.90
35240;DHT22;21376;50.954;4.716;2023-04-25T03:06:21;8.30;99.90
35240;DHT22;21376;50.954;4.716;2023-04-25T03:08:47;8.40;99.90
35240;DHT22;21376;50.954;4.716;2023-04-25T03:11:13;8.50;99.90
35240;DHT22;21376;50.954;4.716;2023-04-25T03:13:44;8.50;99.90
35240;DHT22;21376;50.954;4.716;2023-04-25T03:16:10;8.40;99.90
35240;DHT22;21376;50.954;4.716;2023-04-25T03:18:36;8.50;99.90
35240;DHT22;21376;50.954;4.716;2023-04-25T03:21:03;8.40;99.90
35240;DHT22;21376;50.954;4.716;2023-04-25T03:23:29;8.30;99.90
35240;DHT22;21376;50.954;4.716;2023-04-25T03:25:56;8.20;99.90
35240;DHT22;21376;50.954;4.716;2023-04-25T03:28:22;8.10;99.90
35240;DHT22;21376;50.954;4.716;2023-04-25T03:30:47;8.10;99.90
35240;DHT22;21376;50.954;4.716;2023-04-25T03:33:19;8.10;99.90
35240;DHT22;21376;50.954;4.716;2023-04-25T03:35:48;8.10;99.90
35240;DHT22;21376;50.954;4.716;2023-04-25T03:38:17;8.10;99.90
35240;DHT22;21376;50.954;4.716;2023-04-25T03:40:43;8.00;99.90
35240;DHT22;21376;50.954;4.716;2023-04-25T03:43:09;8.00;99.90
35240;DHT22;21376;50.954;4.716;2023-04-25T03:45:41;7.90;99.90
35240;DHT22;21376;50.954;4.716;2023-04-25T03:48:08;7.70;99.90
35240;DHT22;21376;50.954;4.716;2023-04-25T03:50:36;7.70;99.90
35240;DHT22;21376;50.954;4.716;2023-04-25T03:53:02;7.70;99.90
35240;DHT22;21376;50.954;4.716;2023-04-25T03:55:31;7.70;99.90
35240;DHT22;21376;50.954;4.716;2023-04-25T03:57:58;7.60;99.90
35240;DHT22;21376;50.954;4.716;2023-04-25T04:00:24;7.70;99.90
35240;DHT22;21376;50.954;4.716;2023-04-25T04:02:50;7.50;99.90
35240;DHT22;21376;50.954;4.716;2023-04-25T04:05:19;7.50;99.90
35240;DHT22;21376;50.954;4.716;2023-04-25T04:07:48;7.50;99.90
35240;DHT22;21376;50.954;4.716;2023-04-25T04:10:18;7.60;99.90
35240;DHT22;21376;50.954;4.716;2023-04-25T04:12:50;7.60;99.90
35240;DHT22;21376;50.954;4.716;2023-04-25T04:15:16;7.50;99.90
35240;DHT22;21376;50.954;4.716;2023-04-25T04:17:45;7.50;99.90
35240;DHT22;21376;50.954;4.716;2023-04-25T04:20:15;7.60;99.90
35240;DHT22;21376;50.954;4.716;2023-04-25T04:22:43;7.70;99.90
35240;DHT22;21376;50.954;4.716;2023-04-25T04:25:12;7.80;99.90
35240;DHT22;21376;50.954;4.716;2023-04-25T04:27:39;7.70;99.90
35240;DHT22;21376;50.954;4.716;2023-04-25T04:30:14;7.80;99.90
35240;DHT22;21376;50.954;4.716;2023-04-25T04:32:43;7.80;99.90
35240;DHT22;21376;50.954;4.716;2023-04-25T04:35:13;7.80;99.90
35240;DHT22;21376;50.954;4.716;2023-04-25T04:37:42;7.80;99.90
35240;DHT22;21376;50.954;4.716;2023-04-25T04:40:11;7.80;99.90
35240;DHT22;21376;50.954;4.716;2023-04-25T04:42:44;7.90;99.90
35240;DHT22;21376;50.954;4.716;2023-04-25T04:45:14;7.80;99.90
35240;DHT22;21376;50.954;4.716;2023-04-25T04:47:41;7.80;99.90
35240;DHT22;21376;50.954;4.716;2023-04-25T04:50:09;7.90;99.90
35240;DHT22;21376;50.954;4.716;2023-04-25T04:52:36;7.80;99.90
35240;DHT22;21376;50.954;4.716;2023-04-25T04:55:03;7.80;99.90
35240;DHT22;21376;50.954;4.716;2023-04-25T04:57:32;7.90;99.90
35240;DHT22;21376;50.954;4.716;2023-04-25T05:00:05;7.90;99.90
35240;DHT22;21376;50.954;4.716;2023-04-25T05:02:39;7.90;99.90
35240;DHT22;21376;50.954;4.716;2023-04-25T05:08:12;7.80;99.90
35240;DHT22;21376;50.954;4.716;2023-04-25T05:10:41;7.70;99.90
35240;DHT22;21376;50.954;4.716;2023-04-25T05:13:10;7.80;99.90
35240;DHT22;21376;50.954;4.716;2023-04-25T05:15:39;7.70;99.90
35240;DHT22;21376;50.954;4.716;2023-04-25T05:18:06;7.70;99.90
35240;DHT22;21376;50.954;4.716;2023-04-25T05:20:31;7.70;99.90
35240;DHT22;21376;50.954;4.716;2023-04-25T05:23:00;7.70;99.90
35240;DHT22;21376;50.954;4.716;2023-04-25T05:25:27;7.80;99.90
35240;DHT22;21376;50.954;4.716;2023-04-25T05:27:56;7.80;99.90
35240;DHT22;21376;50.954;4.716;2023-04-25T05:30:28;7.70;99.90
35240;DHT22;21376;50.954;4.716;2023-04-25T05:32:57;7.60;99.90
35240;DHT22;21376;50.954;4.716;2023-04-25T05:35:26;7.70;99.90
35240;DHT22;21376;50.954;4.716;2023-04-25T05:37:55;7.70;99.90
35240;DHT22;21376;50.954;4.716;2023-04-25T05:40:21;7.70;99.90
35240;DHT22;21376;50.954;4.716;2023-04-25T05:42:48;7.80;99.90
35240;DHT22;21376;50.954;4.716;2023-04-25T05:45:20;7.70;99.90
35240;DHT22;21376;50.954;4.716;2023-04-25T05:47:49;7.90;99.90
35240;DHT22;21376;50.954;4.716;2023-04-25T05:50:35;7.90;99.90
35240;DHT22;21376;50.954;4.716;2023-04-25T05:53:03;8.10;99.90
35240;DHT22;21376;50.954;4.716;2023-04-25T05:55:33;8.10;99.90
35240;DHT22;21376;50.954;4.716;2023-04-25T05:58:01;8.20;99.90
35240;DHT22;21376;50.954;4.716;2023-04-25T06:00:29;8.30;99.90
35240;DHT22;21376;50.954;4.716;2023-04-25T06:02:54;8.20;99.90
35240;DHT22;21376;50.954;4.716;2023-04-25T06:05:24;8.30;99.90
35240;DHT22;21376;50.954;4.716;2023-04-25T06:07:53;8.50;99.90
35240;DHT22;21376;50.954;4.716;2023-04-25T06:10:20;8.40;99.90
35240;DHT22;21376;50.954;4.716;2023-04-25T06:12:49;8.40;99.90
35240;DHT22;21376;50.954;4.716;2023-04-25T06:15:14;8.50;99.90
35240;DHT22;21376;50.954;4.716;2023-04-25T06:17:41;8.80;99.90
35240;DHT22;21376;50.954;4.716;2023-04-25T06:20:13;9.00;99.90
35240;DHT22;21376;50.954;4.716;2023-04-25T06:22:42;9.10;99.90
35240;DHT22;21376;50.954;4.716;2023-04-25T06:25:11;9.30;99.90
35240;DHT22;21376;50.954;4.716;2023-04-25T06:27:39;9.30;99.90
35240;DHT22;21376;50.954;4.716;2023-04-25T06:30:06;9.40;99.90
35240;DHT22;21376;50.954;4.716;2023-04-25T06:32:34;9.20;99.90
35240;DHT22;21376;50.954;4.716;2023-04-25T06:38:19;9.40;99.90
35240;DHT22;21376;50.954;4.716;2023-04-25T06:40:48;9.50;99.90
35240;DHT22;21376;50.954;4.716;2023-04-25T06:43:14;9.80;99.90
35240;DHT22;21376;50.954;4.716;2023-04-25T06:45:43;10.20;99.90
35240;DHT22;21376;50.954;4.716;2023-04-25T06:48:10;10.10;99.90
35240;DHT22;21376;50.954;4.716;2023-04-25T06:50:36;10.30;99.90
35240;DHT22;21376;50.954;4.716;2023-04-25T06:53:05;10.30;99.90
35240;DHT22;21376;50.954;4.716;2023-04-25T06:55:35;10.40;99.90
35240;DHT22;21376;50.954;4.716;2023-04-25T06:58:02;10.70;99.90
35240;DHT22;21376;50.954;4.716;2023-04-25T07:00:32;10.70;99.90
35240;DHT22;21376;50.954;4.716;2023-04-25T07:03:02;10.60;99.90
35240;DHT22;21376;50.954;4.716;2023-04-25T07:05:31;10.90;99.90
35240;DHT22;21376;50.954;4.716;2023-04-25T07:08:00;10.90;99.90
35240;DHT22;21376;50.954;4.716;2023-04-25T07:10:29;11.20;99.90
35240;DHT22;21376;50.954;4.716;2023-04-25T07:12:58;11.10;99.90
35240;DHT22;21376;50.954;4.716;2023-04-25T07:15:24;10.90;99.90
35240;DHT22;21376;50.954;4.716;2023-04-25T07:17:50;11.00;99.90
35240;DHT22;21376;50.954;4.716;2023-04-25T07:20:30;11.00;99.90
35240;DHT22;21376;50.954;4.716;2023-04-25T07:22:59;11.30;99.90
35240;DHT22;21376;50.954;4.716;2023-04-25T07:25:25;11.30;99.90
35240;DHT22;21376;50.954;4.716;2023-04-25T07:27:51;11.60;99.90
35240;DHT22;21376;50.954;4.716;2023-04-25T07:30:20;11.70;99.90
35240;DHT22;21376;50.954;4.716;2023-04-25T07:33:07;12.10;99.90
35240;DHT22;21376;50.954;4.716;2023-04-25T07:35:35;12.50;99.90
35240;DHT22;21376;50.954;4.716;2023-04-25T07:38:02;13.10;99.90
35240;DHT22;21376;50.954;4.716;2023-04-25T07:40:29;14.00;99.90
35240;DHT22;21376;50.954;4.716;2023-04-25T07:42:55;15.50;99.90
35240;DHT22;21376;50.954;4.716;2023-04-25T07:45:21;15.30;99.90
35240;DHT22;21376;50.954;4.716;2023-04-25T07:47:48;14.60;99.90
35240;DHT22;21376;50.954;4.716;2023-04-25T07:50:14;13.40;99.90
35240;DHT22;21376;50.954;4.716;2023-04-25T07:52:40;13.00;99.90
35240;DHT22;21376;50.954;4.716;2023-04-25T07:55:09;12.70;99.90
35240;DHT22;21376;50.954;4.716;2023-04-25T07:57:35;12.80;99.90
35240;DHT22;21376;50.954;4.716;2023-04-25T08:00:03;13.00;99.90
35240;DHT22;21376;50.954;4.716;2023-04-25T08:02:29;13.00;99.90
35240;DHT22;21376;50.954;4.716;2023-04-25T08:04:57;12.80;99.90
35240;DHT22;21376;50.954;4.716;2023-04-25T08:07:22;12.50;99.90
35240;DHT22;21376;50.954;4.716;2023-04-25T08:09:48;12.70;99.90
35240;DHT22;21376;50.954;4.716;2023-04-25T08:12:18;12.30;99.90
35240;DHT22;21376;50.954;4.716;2023-04-25T08:14:47;12.20;99.90
35240;DHT22;21376;50.954;4.716;2023-04-25T08:17:15;11.90;99.90
35240;DHT22;21376;50.954;4.716;2023-04-25T08:19:41;11.80;99.90
35240;DHT22;21376;50.954;4.716;2023-04-25T08:22:07;11.50;99.90
35240;DHT22;21376;50.954;4.716;2023-04-25T08:24:34;11.40;99.90
35240;DHT22;21376;50.954;4.716;2023-04-25T08:27:03;11.20;99.90
35240;DHT22;21376;50.954;4.716;2023-04-25T08:29:31;11.30;99.90
35240;DHT22;21376;50.954;4.716;2023-04-25T08:31:56;11.40;99.90
35240;DHT22;21376;50.954;4.716;2023-04-25T08:34:23;11.30;99.90
35240;DHT22;21376;50.954;4.716;2023-04-25T08:36:51;11.20;99.90
35240;DHT22;21376;50.954;4.716;2023-04-25T08:39:16;11.60;99.90
35240;DHT22;21376;50.954;4.716;2023-04-25T08:41:45;11.80;99.90
35240;DHT22;21376;50.954;4.716;2023-04-25T08:44:14;12.00;99.90
35240;DHT22;21376;50.954;4.716;2023-04-25T08:46:44;12.80;99.90
35240;DHT22;21376;50.954;4.716;2023-04-25T08:49:18;13.50;99.90
35240;DHT22;21376;50.954;4.716;2023-04-25T08:51:47;14.70;99.90
35240;DHT22;21376;50.954;4.716;2023-04-25T08:54:23;17.90;99.90
35240;DHT22;21376;50.954;4.716;2023-04-25T08:56:54;21.10;99.90
35240;DHT22;21376;50.954;4.716;2023-04-25T08:59:24;23.20;96.00
35240;DHT22;21376;50.954;4.716;2023-04-25T09:01:53;23.80;95.10
35240;DHT22;21376;50.954;4.716;2023-04-25T09:04:20;25.90;93.90
35240;DHT22;21376;50.954;4.716;2023-04-25T09:06:47;23.50;86.70
35240;DHT22;21376;50.954;4.716;2023-04-25T09:09:13;20.90;93.00
35240;DHT22;21376;50.954;4.716;2023-04-25T09:11:43;18.80;94.10
35240;DHT22;21376;50.954;4.716;2023-04-25T09:14:27;17.10;96.00
35240;DHT22;21376;50.954;4.716;2023-04-25T09:21:54;14.60;99.90
35240;DHT22;21376;50.954;4.716;2023-04-25T09:24:42;13.80;99.90
35240;DHT22;21376;50.954;4.716;2023-04-25T09:27:18;13.30;99.90
35240;DHT22;21376;50.954;4.716;2023-04-25T09:29:45;12.80;99.90
35240;DHT22;21376;50.954;4.716;2023-04-25T09:32:18;12.50;99.90
35240;DHT22;21376;50.954;4.716;2023-04-25T09:34:51;12.60;99.90
35240;DHT22;21376;50.954;4.716;2023-04-25T09:37:21;12.60;99.90
35240;DHT22;21376;50.954;4.716;2023-04-25T09:39:52;12.60;99.90
35240;DHT22;21376;50.954;4.716;2023-04-25T09:42:25;12.70;99.90
35240;DHT22;21376;50.954;4.716;2023-04-25T09:44:58;12.50;99.90
35240;DHT22;21376;50.954;4.716;2023-04-25T09:47:37;13.10;99.90
35240;DHT22;21376;50.954;4.716;2023-04-25T09:50:16;14.00;99.90
35240;DHT22;21376;50.954;4.716;2023-04-25T09:52:45;14.80;99.90
35240;DHT22;21376;50.954;4.716;2023-04-25T09:55:17;16.40;99.90
35240;DHT22;21376;50.954;4.716;2023-04-25T09:57:50;19.10;97.60
35240;DHT22;21376;50.954;4.716;2023-04-25T10:00:20;20.00;94.90
35240;DHT22;21376;50.954;4.716;2023-04-25T10:02:54;21.00;93.60
35240;DHT22;21376;50.954;4.716;2023-04-25T10:05:21;23.20;92.30
35240;DHT22;21376;50.954;4.716;2023-04-25T10:07:48;25.30;83.70
35240;DHT22;21376;50.954;4.716;2023-04-25T10:10:43;26.00;72.30
35240;DHT22;21376;50.954;4.716;2023-04-25T10:13:16;25.40;75.20
35240;DHT22;21376;50.954;4.716;2023-04-25T10:19:08;21.70;77.00
35240;DHT22;21376;50.954;4.716;2023-04-25T10:27:29;23.50;76.40
35240;DHT22;21376;50.954;4.716;2023-04-25T10:30:10;23.50;71.20
35240;DHT22;21376;50.954;4.716;2023-04-25T10:32:38;23.10;70.00
35240;DHT22;21376;50.954;4.716;2023-04-25T10:35:12;23.30;73.50
35240;DHT22;21376;50.954;4.716;2023-04-25T10:40:28;24.40;71.30
35240;DHT22;21376;50.954;4.716;2023-04-25T10:45:59;22.60;67.60
35240;DHT22;21376;50.954;4.716;2023-04-25T10:48:34;21.90;70.00
35240;DHT22;21376;50.954;4.716;2023-04-25T10:51:23;23.00;67.90
35240;DHT22;21376;50.954;4.716;2023-04-25T10:53:59;23.20;69.70
35240;DHT22;21376;50.954;4.716;2023-04-25T10:59:14;22.00;70.80
35240;DHT22;21376;50.954;4.716;2023-04-25T11:01:47;20.10;74.10
35240;DHT22;21376;50.954;4.716;2023-04-25T11:04:33;19.30;77.30
35240;DHT22;21376;50.954;4.716;2023-04-25T11:07:09;18.30;80.90
35240;DHT22;21376;50.954;4.716;2023-04-25T11:09:40;17.30;79.00
35240;DHT22;21376;50.954;4.716;2023-04-25T11:12:09;16.10;89.00
35240;DHT22;21376;50.954;4.716;2023-04-25T11:14:43;15.40;89.50
35240;DHT22;21376;50.954;4.716;2023-04-25T11:17:12;15.70;92.30
35240;DHT22;21376;50.954;4.716;2023-04-25T11:19:41;16.30;92.80
35240;DHT22;21376;50.954;4.716;2023-04-25T11:22:10;18.60;92.70
35240;DHT22;21376;50.954;4.716;2023-04-25T11:24:39;21.30;85.50
35240;DHT22;21376;50.954;4.716;2023-04-25T11:27:05;21.10;81.50
35240;DHT22;21376;50.954;4.716;2023-04-25T11:29:35;19.90;84.40
35240;DHT22;21376;50.954;4.716;2023-04-25T11:32:02;18.50;79.90
35240;DHT22;21376;50.954;4.716;2023-04-25T11:34:32;17.40;85.50
35240;DHT22;21376;50.954;4.716;2023-04-25T11:37:02;17.30;88.10
35240;DHT22;21376;50.954;4.716;2023-04-25T11:39:30;17.00;90.00
35240;DHT22;21376;50.954;4.716;2023-04-25T11:41:59;16.70;90.90
35240;DHT22;21376;50.954;4.716;2023-04-25T11:44:26;16.20;92.70
35240;DHT22;21376;50.954;4.716;2023-04-25T11:46:53;16.20;92.40
35240;DHT22;21376;50.954;4.716;2023-04-25T11:49:22;16.30;92.40
35240;DHT22;21376;50.954;4.716;2023-04-25T11:51:51;15.90;92.20
35240;DHT22;21376;50.954;4.716;2023-04-25T11:54:20;15.70;92.80
35240;DHT22;21376;50.954;4.716;2023-04-25T11:56:45;17.60;89.40
35240;DHT22;21376;50.954;4.716;2023-04-25T11:59:13;18.80;90.40
35240;DHT22;21376;50.954;4.716;2023-04-25T12:01:48;19.00;88.30
35240;DHT22;21376;50.954;4.716;2023-04-25T12:04:22;19.70;84.90
35240;DHT22;21376;50.954;4.716;2023-04-25T12:06:52;20.10;84.30
35240;DHT22;21376;50.954;4.716;2023-04-25T12:09:41;20.60;83.50
35240;DHT22;21376;50.954;4.716;2023-04-25T12:12:10;19.40;80.40
35240;DHT22;21376;50.954;4.716;2023-04-25T12:14:39;18.50;83.20
35240;DHT22;21376;50.954;4.716;2023-04-25T12:17:11;17.90;85.30
35240;DHT22;21376;50.954;4.716;2023-04-25T12:19:39;17.50;84.00
35240;DHT22;21376;50.954;4.716;2023-04-25T12:22:20;18.70;84.30
35240;DHT22;21376;50.954;4.716;2023-04-25T12:24:50;19.80;84.10
35240;DHT22;21376;50.954;4.716;2023-04-25T12:27:16;19.10;83.60
35240;DHT22;21376;50.954;4.716;2023-04-25T12:29:55;18.60;87.40
35240;DHT22;21376;50.954;4.716;2023-04-25T12:32:32;17.80;79.10
35240;DHT22;21376;50.954;4.716;2023-04-25T12:35:31;17.10;82.30
35240;DHT22;21376;50.954;4.716;2023-04-25T12:37:58;18.00;90.10
35240;DHT22;21376;50.954;4.716;2023-04-25T12:40:27;18.40;81.30
35240;DHT22;21376;50.954;4.716;2023-04-25T12:42:53;18.30;77.00
35240;DHT22;21376;50.954;4.716;2023-04-25T12:45:20;18.80;78.60
35240;DHT22;21376;50.954;4.716;2023-04-25T12:47:46;18.50;80.40
35240;DHT22;21376;50.954;4.716;2023-04-25T12:50:12;18.30;84.20
35240;DHT22;21376;50.954;4.716;2023-04-25T12:52:38;17.70;80.10
35240;DHT22;21376;50.954;4.716;2023-04-25T12:55:07;17.50;82.90
35240;DHT22;21376;50.954;4.716;2023-04-25T12:57:36;16.90;83.90
35240;DHT22;21376;50.954;4.716;2023-04-25T13:00:13;16.60;82.20
35240;DHT22;21376;50.954;4.716;2023-04-25T13:02:48;16.00;82.40
35240;DHT22;21376;50.954;4.716;2023-04-25T13:05:14;15.30;87.00
35240;DHT22;21376;50.954;4.716;2023-04-25T13:07:42;14.90;92.80
35240;DHT22;21376;50.954;4.716;2023-04-25T13:10:09;14.90;92.90
35240;DHT22;21376;50.954;4.716;2023-04-25T13:12:35;14.90;90.80
35240;DHT22;21376;50.954;4.716;2023-04-25T13:15:02;14.90;93.60
35240;DHT22;21376;50.954;4.716;2023-04-25T13:17:28;15.10;92.00
35240;DHT22;21376;50.954;4.716;2023-04-25T13:19:56;15.70;93.30
35240;DHT22;21376;50.954;4.716;2023-04-25T13:22:23;16.50;90.50
35240;DHT22;21376;50.954;4.716;2023-04-25T13:24:49;17.30;87.00
35240;DHT22;21376;50.954;4.716;2023-04-25T13:27:24;18.70;90.20
35240;DHT22;21376;50.954;4.716;2023-04-25T13:29:56;19.00;85.10
35240;DHT22;21376;50.954;4.716;2023-04-25T13:32:23;19.70;84.60
35240;DHT22;21376;50.954;4.716;2023-04-25T13:34:49;18.40;82.60
35240;DHT22;21376;50.954;4.716;2023-04-25T13:37:15;17.00;79.90
35240;DHT22;21376;50.954;4.716;2023-04-25T13:39:41;15.90;89.90
35240;DHT22;21376;50.954;4.716;2023-04-25T13:42:08;15.40;91.20
35240;DHT22;21376;50.954;4.716;2023-04-25T13:44:47;15.40;91.40
35240;DHT22;21376;50.954;4.716;2023-04-25T13:47:15;15.50;90.20
35240;DHT22;21376;50.954;4.716;2023-04-25T13:52:48;14.40;90.10
35240;DHT22;21376;50.954;4.716;2023-04-25T13:55:17;14.00;90.00
35240;DHT22;21376;50.954;4.716;2023-04-25T13:57:46;13.80;92.60
35240;DHT22;21376;50.954;4.716;2023-04-25T14:00:29;13.70;90.00
35240;DHT22;21376;50.954;4.716;2023-04-25T14:02:56;13.70;91.60
35240;DHT22;21376;50.954;4.716;2023-04-25T14:05:24;14.10;92.10
35240;DHT22;21376;50.954;4.716;2023-04-25T14:08:07;14.50;91.60
35240;DHT22;21376;50.954;4.716;2023-04-25T14:10:36;14.80;91.60
35240;DHT22;21376;50.954;4.716;2023-04-25T14:13:05;14.70;91.00
35240;DHT22;21376;50.954;4.716;2023-04-25T14:15:39;14.40;91.30
35240;DHT22;21376;50.954;4.716;2023-04-25T14:18:24;13.90;91.40
35240;DHT22;21376;50.954;4.716;2023-04-25T14:21:02;13.50;91.30
35240;DHT22;21376;50.954;4.716;2023-04-25T14:23:31;13.10;93.70
35240;DHT22;21376;50.954;4.716;2023-04-25T14:25:59;13.10;92.10
35240;DHT22;21376;50.954;4.716;2023-04-25T14:28:25;13.30;91.60
35240;DHT22;21376;50.954;4.716;2023-04-25T14:30:52;13.60;93.30
35240;DHT22;21376;50.954;4.716;2023-04-25T14:33:20;13.90;93.90
35240;DHT22;21376;50.954;4.716;2023-04-25T14:35:46;14.40;91.00
35240;DHT22;21376;50.954;4.716;2023-04-25T14:38:13;14.60;91.10
35240;DHT22;21376;50.954;4.716;2023-04-25T14:40:42;14.60;87.80
35240;DHT22;21376;50.954;4.716;2023-04-25T14:43:10;14.50;91.00
35240;DHT22;21376;50.954;4.716;2023-04-25T14:45:39;14.60;91.90
35240;DHT22;21376;50.954;4.716;2023-04-25T14:48:07;14.50;92.70
35240;DHT22;21376;50.954;4.716;2023-04-25T14:50:36;14.20;92.90
35240;DHT22;21376;50.954;4.716;2023-04-25T14:53:02;13.60;93.60
35240;DHT22;21376;50.954;4.716;2023-04-25T14:55:30;13.60;94.90
35240;DHT22;21376;50.954;4.716;2023-04-25T14:57:59;13.90;94.60
35240;DHT22;21376;50.954;4.716;2023-04-25T15:00:31;14.20;95.40
35240;DHT22;21376;50.954;4.716;2023-04-25T15:03:03;14.00;93.90
35240;DHT22;21376;50.954;4.716;2023-04-25T15:05:29;14.10;92.40
35240;DHT22;21376;50.954;4.716;2023-04-25T15:08:02;14.10;94.10
35240;DHT22;21376;50.954;4.716;2023-04-25T15:10:28;14.10;92.50
35240;DHT22;21376;50.954;4.716;2023-04-25T15:12:56;14.00;91.50
35240;DHT22;21376;50.954;4.716;2023-04-25T15:15:23;14.00;91.70
35240;DHT22;21376;50.954;4.716;2023-04-25T15:17:49;14.00;91.70
35240;DHT22;21376;50.954;4.716;2023-04-25T15:20:16;14.00;91.60
35240;DHT22;21376;50.954;4.716;2023-04-25T15:22:45;14.00;95.30
35240;DHT22;21376;50.954;4.716;2023-04-25T15:25:11;13.80;92.50
35240;DHT22;21376;50.954;4.716;2023-04-25T15:27:38;13.60;93.20
35240;DHT22;21376;50.954;4.716;2023-04-25T15:30:11;13.50;94.40
35240;DHT22;21376;50.954;4.716;2023-04-25T15:32:40;13.40;93.60
35240;DHT22;21376;50.954;4.716;2023-04-25T15:35:09;13.20;95.70
35240;DHT22;21376;50.954;4.716;2023-04-25T15:37:37;13.20;93.60
35240;DHT22;21376;50.954;4.716;2023-04-25T15:40:08;13.10;94.80
35240;DHT22;21376;50.954;4.716;2023-04-25T15:42:55;13.00;94.80
35240;DHT22;21376;50.954;4.716;2023-04-25T15:45:25;13.00;95.40
35240;DHT22;21376;50.954;4.716;2023-04-25T15:47:55;12.70;94.60
35240;DHT22;21376;50.954;4.716;2023-04-25T15:50:30;12.50;95.30
35240;DHT22;21376;50.954;4.716;2023-04-25T15:52:57;12.50;95.50
35240;DHT22;21376;50.954;4.716;2023-04-25T15:55:26;12.60;95.40
35240;DHT22;21376;50.954;4.716;2023-04-25T15:57:53;12.70;96.30
35240;DHT22;21376;50.954;4.716;2023-04-25T16:00:55;12.90;97.30
35240;DHT22;21376;50.954;4.716;2023-04-25T16:03:46;13.10;93.20
35240;DHT22;21376;50.954;4.716;2023-04-25T16:09:28;13.40;93.00
35240;DHT22;21376;50.954;4.716;2023-04-25T16:15:17;13.40;93.00
35240;DHT22;21376;50.954;4.716;2023-04-25T16:17:46;13.50;94.80
35240;DHT22;21376;50.954;4.716;2023-04-25T16:20:12;13.60;94.90
35240;DHT22;21376;50.954;4.716;2023-04-25T16:22:40;14.00;92.20
35240;DHT22;21376;50.954;4.716;2023-04-25T16:25:09;13.80;92.40
35240;DHT22;21376;50.954;4.716;2023-04-25T16:27:37;14.00;93.30
35240;DHT22;21376;50.954;4.716;2023-04-25T16:30:06;14.20;95.80
35240;DHT22;21376;50.954;4.716;2023-04-25T16:32:52;14.00;92.90